Time;durP1;ratioP1;P1;durP2;ratioP2;P2;SDS_P1;SDS_P2;PMS_P1;PMS_P2;Temp;Humidity;BMP_temperature;BMP_pressure;BME280_temperature;BME280_humidity;BME280_pressure;Samples;Min_cycle;Max_cycle;Signal;HPM_P1;HPM_P2
2024/02/28 00:00:05;;;;;;;;;;;;;;;18.70;34.53;101769.50;4131807;28;20008;-57
2024/02/28 00:02:06;;;;;;;;;;;;;;;18.70;34.41;101775.72;4131727;28;19968;-57
2024/02/28 00:04:08;;;;;;;;;;;;;;;18.70;34.68;101772.16;4131562;28;19926;-57
2024/02/28 00:06:10;;;;;;;;;;;;;;;18.71;34.66;101772.06;4131834;28;20439;-57
2024/02/28 00:08:11;;;;;;;;;;;;;;;18.70;34.47;101774.81;4131590;28;19956;-57
2024/02/28 00:10:13;;;;;;;;;;;;;;;18.67;34.36;101774.03;4131596;28;19929;-57
2024/02/28 00:12:15;;;;;;;;;;;;;;;18.66;34.67;101763.47;4131593;28;19925;-56
2024/02/28 00:14:17;;;;;;;;;;;;;;;18.66;34.49;101767.00;4131826;28;20012;-57
2024/02/28 00:16:18;;;;;;;;;;;;;;;18.68;34.70;101766.94;4131284;28;20438;-56
2024/02/28 00:18:20;;;;;;;;;;;;;;;18.67;34.57;101763.38;4131787;28;19933;-56
2024/02/28 00:20:23;;;;;;;;;;;;;;;18.70;34.54;101777.50;4131676;28;20005;-57
2024/02/28 00:22:25;;;;;;;;;;;;;;;18.71;34.63;101774.75;4131585;28;19926;-56
2024/02/28 00:24:27;;;;;;;;;;;;;;;18.71;34.94;101768.56;4131390;28;20017;-56
2024/02/28 00:26:28;;;;;;;;;;;;;;;18.71;34.55;101768.56;4114563;28;19937;-56
2024/02/28 00:28:32;;;;;;;;;;;;;;;18.71;34.56;101772.06;4131500;28;20012;-56
2024/02/28 00:30:34;;;;;;;;;;;;;;;18.72;34.52;101771.13;4131324;28;19937;-57
2024/02/28 00:32:35;;;;;;;;;;;;;;;18.71;34.60;101768.56;4131466;28;19926;-57
2024/02/28 00:34:37;;;;;;;;;;;;;;;18.71;34.60;101768.56;4131452;28;20029;-56
2024/02/28 00:36:40;;;;;;;;;;;;;;;18.71;34.62;101765.91;4131649;28;19973;-56
2024/02/28 00:38:55;;;;;;;;;;;;;;;18.69;34.59;101773.97;4131629;28;20031;-56
2024/02/28 00:40:57;;;;;;;;;;;;;;;18.68;34.58;101777.59;4114340;28;20276;-56
2024/02/28 00:42:58;;;;;;;;;;;;;;;18.68;34.73;101773.09;4131390;28;19926;-56
2024/02/28 00:45:00;;;;;;;;;;;;;;;18.69;34.68;101776.66;4134355;28;19932;-57
2024/02/28 00:47:02;;;;;;;;;;;;;;;18.68;34.57;101773.09;4134771;28;19926;-57
2024/02/28 00:49:03;;;;;;;;;;;;;;;18.70;34.69;101782.81;4134694;28;19964;-57
2024/02/28 00:51:05;;;;;;;;;;;;;;;18.72;34.48;101780.94;4134329;28;20392;-57
2024/02/28 00:53:07;;;;;;;;;;;;;;;18.72;34.61;101778.28;4134608;28;20021;-55
2024/02/28 00:55:08;;;;;;;;;;;;;;;18.73;34.91;101777.34;4134491;28;19926;-56
2024/02/28 00:57:10;;;;;;;;;;;;;;;18.73;34.64;101777.34;4134487;28;20492;-56
2024/02/28 00:59:12;;;;;;;;;;;;;;;18.71;34.58;101769.41;4134349;28;20278;-56
2024/02/28 01:01:14;;;;;;;;;;;;;;;18.71;34.92;101774.75;4133976;28;19929;-57
2024/02/28 01:03:18;;;;;;;;;;;;;;;18.72;34.85;101783.63;4134293;28;19930;-57
2024/02/28 01:05:19;;;;;;;;;;;;;;;18.71;34.94;101784.56;4134240;28;20458;-57
2024/02/28 01:07:21;;;;;;;;;;;;;;;18.69;34.53;101781.97;4134245;28;20411;-57
2024/02/28 01:09:22;;;;;;;;;;;;;;;18.68;34.68;101786.44;4134451;28;19980;-56
2024/02/28 01:11:24;;;;;;;;;;;;;;;18.68;34.54;101778.44;4134285;28;19925;-56
2024/02/28 01:13:26;;;;;;;;;;;;;;;18.69;34.62;101776.66;4134197;28;20005;-56
2024/02/28 01:15:28;;;;;;;;;;;;;;;18.70;34.93;101773.03;4133896;28;19964;-57
2024/02/28 01:17:30;;;;;;;;;;;;;;;18.70;34.98;101773.03;4134227;28;19933;-58
2024/02/28 01:19:31;;;;;;;;;;;;;;;18.71;34.53;101768.56;4134254;28;19926;-57
2024/02/28 01:21:33;;;;;;;;;;;;;;;18.72;34.77;101767.63;4134232;28;20376;-56
2024/02/28 01:23:35;;;;;;;;;;;;;;;18.74;34.63;101760.41;4134168;28;20371;-58
2024/02/28 01:25:36;;;;;;;;;;;;;;;18.73;34.64;101756.88;4133894;28;20391;-56
2024/02/28 01:27:38;;;;;;;;;;;;;;;18.73;34.73;101756.88;4134063;28;20323;-56
2024/02/28 01:29:40;;;;;;;;;;;;;;;18.73;35.07;101759.53;4133564;28;19957;-57
2024/02/28 01:31:42;;;;;;;;;;;;;;;18.73;34.68;101759.53;4133959;28;19925;-57
2024/02/28 01:33:43;;;;;;;;;;;;;;;18.71;34.69;101760.56;4133762;28;19926;-57
2024/02/28 01:35:45;;;;;;;;;;;;;;;18.71;34.78;101765.91;4133512;28;19933;-57
2024/02/28 01:37:47;;;;;;;;;;;;;;;18.70;34.65;101756.19;4133891;28;19932;-56
2024/02/28 01:39:48;;;;;;;;;;;;;;;18.70;34.92;101759.72;4133993;28;20013;-56
2024/02/28 01:41:53;;;;;;;;;;;;;;;18.70;34.74;101758.84;4133942;28;19981;-57
2024/02/28 01:43:55;;;;;;;;;;;;;;;18.71;34.78;101763.22;4133577;28;20379;-57
2024/02/28 01:46:00;;;;;;;;;;;;;;;18.72;35.08;101772.97;4133997;28;20374;-56
2024/02/28 01:48:02;;;;;;;;;;;;;;;18.71;34.85;101764.09;4133652;28;19980;-56
2024/02/28 01:50:04;;;;;;;;;;;;;;;18.71;34.89;101769.41;4133677;28;20344;-56
2024/02/28 01:52:06;;;;;;;;;;;;;;;18.73;34.99;101774.69;4133584;28;20268;-57
2024/02/28 01:54:08;;;;;;;;;;;;;;;18.72;34.74;101776.47;4133464;28;19933;-57
2024/02/28 01:56:10;;;;;;;;;;;;;;;18.74;34.68;101776.41;4132535;28;19930;-56
2024/02/28 01:58:12;;;;;;;;;;;;;;;18.74;34.60;101779.91;4115837;28;19932;-56
2024/02/28 02:00:15;;;;;;;;;;;;;;;18.72;34.99;101778.28;4133631;28;19932;-55
2024/02/28 02:02:17;;;;;;;;;;;;;;;18.71;34.58;101781.88;4133372;28;20020;-57
2024/02/28 02:04:18;;;;;;;;;;;;;;;18.71;34.65;101779.22;4133595;28;20016;-55
2024/02/28 02:06:20;;;;;;;;;;;;;;;18.70;34.82;101770.38;4133121;28;19961;-56
2024/02/28 02:08:22;;;;;;;;;;;;;;;18.68;34.70;101767.78;4133539;28;20351;-54
2024/02/28 02:10:25;;;;;;;;;;;;;;;18.69;34.69;101763.31;4133609;28;19930;-56
2024/02/28 02:12:27;;;;;;;;;;;;;;;18.69;34.68;101755.31;4133018;28;20388;-56
2024/02/28 02:14:28;;;;;;;;;;;;;;;18.68;35.00;101754.44;4133432;28;19976;-56
2024/02/28 02:16:30;;;;;;;;;;;;;;;18.71;34.73;101755.25;4133186;28;19926;-56
2024/02/28 02:18:31;;;;;;;;;;;;;;;18.71;34.82;101764.09;4133213;28;20029;-56
2024/02/28 02:20:36;;;;;;;;;;;;;;;18.72;34.73;101762.28;4115933;28;20347;-55
2024/02/28 02:22:42;;;;;;;;;;;;;;;18.72;34.72;101768.47;4133294;28;19953;-55
2024/02/28 02:24:43;;;;;;;;;;;;;;;18.73;34.88;101769.34;4115790;28;19933;-55
2024/02/28 02:26:46;;;;;;;;;;;;;;;18.72;34.75;101770.28;4132680;28;19926;-54
2024/02/28 02:28:47;;;;;;;;;;;;;;;18.72;34.77;101764.97;4132972;28;19926;-54
2024/02/28 02:30:52;;;;;;;;;;;;;;;18.71;34.75;101771.22;4132817;28;19934;-57
2024/02/28 02:32:53;;;;;;;;;;;;;;;18.70;34.79;101772.16;4133016;28;19973;-55
2024/02/28 02:34:55;;;;;;;;;;;;;;;18.69;34.85;101766.00;4132816;28;19926;-55
2024/02/28 02:36:57;;;;;;;;;;;;;;;18.67;34.75;101768.72;4133132;28;19930;-53
2024/02/28 02:38:58;;;;;;;;;;;;;;;18.67;34.76;101762.53;4132861;28;19980;-57
2024/02/28 02:41:00;;;;;;;;;;;;;;;18.68;34.67;101772.25;4132544;28;19926;-56
2024/02/28 02:43:01;;;;;;;;;;;;;;;18.67;34.66;101765.19;4132869;28;19925;-56
2024/02/28 02:45:03;;;;;;;;;;;;;;;18.69;34.89;101760.66;4132713;28;20356;-57
2024/02/28 02:47:04;;;;;;;;;;;;;;;18.70;34.79;101772.16;4132631;28;20017;-52
2024/02/28 02:49:06;;;;;;;;;;;;;;;18.72;34.80;101767.63;4132793;28;20542;-56
2024/02/28 02:51:07;;;;;;;;;;;;;;;18.72;34.73;101773.81;4107491;28;20459;-56
2024/02/28 02:53:10;;;;;;;;;;;;;;;18.72;34.92;101772.97;4132745;28;19955;-56
2024/02/28 02:55:11;;;;;;;;;;;;;;;18.71;34.86;101763.22;4132522;28;20299;-55
2024/02/28 02:57:13;;;;;;;;;;;;;;;18.71;34.81;101776.56;4132113;28;19932;-55
2024/02/28 02:59:14;;;;;;;;;;;;;;;18.70;34.52;101782.81;4132592;28;19929;-57
2024/02/28 03:01:16;;;;;;;;;;;;;;;18.68;34.73;101782.91;4115430;28;19926;-56
2024/02/28 03:03:18;;;;;;;;;;;;;;;18.66;34.71;101784.78;4132398;28;19988;-56
2024/02/28 03:05:19;;;;;;;;;;;;;;;18.67;34.83;101787.38;4115276;28;20017;-56
2024/02/28 03:07:21;;;;;;;;;;;;;;;18.65;34.59;101789.28;4132306;28;20316;-58
2024/02/28 03:09:22;;;;;;;;;;;;;;;18.66;34.77;101788.34;4132497;28;19926;-56
2024/02/28 03:11:24;;;;;;;;;;;;;;;18.68;34.70;101794.41;4131989;28;19980;-57
2024/02/28 03:13:26;;;;;;;;;;;;;;;18.68;34.75;101802.41;4132221;28;19972;-57
2024/02/28 03:15:27;;;;;;;;;;;;;;;18.70;34.94;101801.47;4132535;28;19929;-56
2024/02/28 03:17:29;;;;;;;;;;;;;;;18.70;34.61;101798.81;4132384;28;19936;-56
2024/02/28 03:19:31;;;;;;;;;;;;;;;18.69;34.66;101808.63;4132363;28;20008;-57
2024/02/28 03:21:33;;;;;;;;;;;;;;;18.70;34.54;101817.47;4132165;28;20462;-56
2024/02/28 03:23:36;;;;;;;;;;;;;;;18.70;34.67;101815.69;4132056;28;19973;-57
2024/02/28 03:25:37;;;;;;;;;;;;;;;18.68;34.66;101818.41;4131934;28;19933;-56
2024/02/28 03:27:39;;;;;;;;;;;;;;;18.67;34.76;101819.34;4132143;28;20293;-56
2024/02/28 03:29:41;;;;;;;;;;;;;;;18.67;34.77;101821.16;4132117;28;19930;-56
2024/02/28 03:31:42;;;;;;;;;;;;;;;18.66;35.16;101827.41;4114873;28;20451;-56
2024/02/28 03:33:46;;;;;;;;;;;;;;;18.65;34.63;101815.91;4132098;28;19925;-57
2024/02/28 03:35:48;;;;;;;;;;;;;;;18.64;35.08;101816.84;4131977;28;20039;-57
2024/02/28 03:37:49;;;;;;;;;;;;;;;18.65;34.99;101815.03;4132026;28;19930;-57
2024/02/28 03:39:51;;;;;;;;;;;;;;;18.65;34.88;101810.59;4131735;28;20028;-57
2024/02/28 03:41:53;;;;;;;;;;;;;;;18.67;34.75;101813.16;4132017;28;19925;-57
2024/02/28 03:43:54;;;;;;;;;;;;;;;18.67;34.66;101816.69;4132002;28;19949;-57
2024/02/28 03:45:56;;;;;;;;;;;;;;;18.68;34.81;101825.56;4131960;28;19934;-56
2024/02/28 03:47:58;;;;;;;;;;;;;;;18.70;34.66;101825.47;4131725;28;19925;-56
2024/02/28 03:50:02;;;;;;;;;;;;;;;18.70;34.79;101831.66;4131789;28;20364;-56
2024/02/28 03:52:06;;;;;;;;;;;;;;;18.68;34.68;101830.88;4131585;28;19972;-56
2024/02/28 03:54:07;;;;;;;;;;;;;;;18.67;34.86;101835.31;4114299;28;20410;-56
2024/02/28 03:56:09;;;;;;;;;;;;;;;18.67;34.70;101838.00;4131846;28;20403;-57
2024/02/28 03:58:10;;;;;;;;;;;;;;;18.65;34.75;101826.56;4131808;28;19929;-56
2024/02/28 04:00:12;;;;;;;;;;;;;;;18.64;35.03;101819.53;4131630;28;19961;-57
2024/02/28 04:02:14;;;;;;;;;;;;;;;18.64;34.87;101818.63;4131706;28;20307;-56
2024/02/28 04:04:15;;;;;;;;;;;;;;;18.64;34.67;101807.97;4131767;28;20009;-57
2024/02/28 04:06:17;;;;;;;;;;;;;;;18.64;34.96;101808.84;4131631;28;19980;-56
2024/02/28 04:08:22;;;;;;;;;;;;;;;18.66;34.80;101808.78;4131374;28;20024;-54
2024/02/28 04:10:23;;;;;;;;;;;;;;;18.67;34.75;101811.34;4131786;28;19933;-57
2024/02/28 04:12:25;;;;;;;;;;;;;;;18.67;34.77;101810.50;4131681;28;20304;-57
2024/02/28 04:14:27;;;;;;;;;;;;;;;18.68;34.62;101798.91;4131869;28;19973;-57
2024/02/28 04:16:29;;;;;;;;;;;;;;;18.68;35.03;101796.25;4131629;28;19926;-57
2024/02/28 04:18:31;;;;;;;;;;;;;;;18.67;34.66;101799.84;4130877;28;19936;-57
2024/02/28 04:20:33;;;;;;;;;;;;;;;18.67;34.69;101803.34;4131620;28;20017;-57
2024/02/28 04:22:34;;;;;;;;;;;;;;;18.67;34.97;101805.16;4131222;28;19989;-57
2024/02/28 04:24:36;;;;;;;;;;;;;;;18.65;34.96;101799.94;4131599;28;19926;-57
2024/02/28 04:26:37;;;;;;;;;;;;;;;18.66;34.68;101811.44;4131579;28;20394;-57
2024/02/28 04:28:40;;;;;;;;;;;;;;;18.63;34.75;101815.13;4131684;28;20403;-57
2024/02/28 04:30:42;;;;;;;;;;;;;;;18.62;34.86;101818.72;4131610;28;19926;-57
2024/02/28 04:32:44;;;;;;;;;;;;;;;18.62;34.94;101825.88;4131432;28;20387;-57
2024/02/28 04:34:46;;;;;;;;;;;;;;;18.63;34.79;101824.94;4114033;28;19927;-57
2024/02/28 04:36:47;;;;;;;;;;;;;;;18.64;35.00;101822.19;4131397;28;19929;-57
2024/02/28 04:38:49;;;;;;;;;;;;;;;18.66;34.54;101808.78;4131126;28;19926;-57
2024/02/28 04:40:50;;;;;;;;;;;;;;;18.67;34.60;101815.81;4131452;28;19926;-57
2024/02/28 04:42:52;;;;;;;;;;;;;;;18.68;34.82;101822.88;4131517;28;19932;-56
2024/02/28 04:44:53;;;;;;;;;;;;;;;18.68;34.68;101822.88;4131433;28;19972;-57
2024/02/28 04:46:55;;;;;;;;;;;;;;;18.68;35.07;101812.22;4131307;28;20004;-57
2024/02/28 04:48:56;;;;;;;;;;;;;;;18.66;34.66;101814.97;4131501;28;19926;-57
2024/02/28 04:51:00;;;;;;;;;;;;;;;18.66;34.73;101822.09;4131413;28;19925;-57
2024/02/28 04:53:02;;;;;;;;;;;;;;;18.65;34.99;101825.69;4131153;28;20588;-57
2024/02/28 04:55:03;;;;;;;;;;;;;;;18.64;34.85;101819.53;4131289;28;19961;-57
2024/02/28 04:57:05;;;;;;;;;;;;;;;18.64;34.79;101821.31;4131345;28;19926;-57
2024/02/28 04:59:07;;;;;;;;;;;;;;;18.63;34.81;101828.44;4131258;28;20021;-57
2024/02/28 05:01:09;;;;;;;;;;;;;;;18.63;34.83;101825.78;4131647;28;19969;-59
2024/02/28 05:03:11;;;;;;;;;;;;;;;18.64;34.61;101823.97;4131477;28;19929;-57
2024/02/28 05:05:13;;;;;;;;;;;;;;;18.64;34.79;101821.31;4131399;28;20375;-57
2024/02/28 05:07:14;;;;;;;;;;;;;;;18.64;34.68;101818.63;4131106;28;19933;-57
2024/02/28 05:09:16;;;;;;;;;;;;;;;18.66;35.01;101820.31;4131363;28;19933;-57
2024/02/28 05:11:17;;;;;;;;;;;;;;;18.66;34.74;101822.97;4131527;28;20057;-57
2024/02/28 05:13:19;;;;;;;;;;;;;;;18.69;34.96;101829.94;4131380;28;19929;-57
2024/02/28 05:15:21;;;;;;;;;;;;;;;18.68;34.67;101828.22;4131296;28;19938;-56
2024/02/28 05:17:22;;;;;;;;;;;;;;;18.68;34.95;101830.88;4131331;28;19953;-57
2024/02/28 05:19:24;;;;;;;;;;;;;;;18.67;34.83;101837.16;4131375;28;19926;-57
2024/02/28 05:21:25;;;;;;;;;;;;;;;18.67;34.77;101838.00;4131089;28;19930;-57
2024/02/28 05:23:30;;;;;;;;;;;;;;;18.65;35.04;101841.69;4114410;28;19926;-58
2024/02/28 05:25:32;;;;;;;;;;;;;;;18.65;35.00;101847.00;4131440;28;19925;-57
2024/02/28 05:27:33;;;;;;;;;;;;;;;18.64;35.08;101851.50;4131179;28;19981;-57
2024/02/28 05:29:35;;;;;;;;;;;;;;;18.63;34.85;101849.75;4132056;28;20280;-57
2024/02/28 05:31:38;;;;;;;;;;;;;;;18.63;34.81;101855.09;4134079;28;19926;-57
2024/02/28 05:33:40;;;;;;;;;;;;;;;18.64;35.05;101855.94;4134161;28;19946;-57
2024/02/28 05:35:42;;;;;;;;;;;;;;;18.65;34.99;101863.00;4133660;28;20013;-57
2024/02/28 05:37:44;;;;;;;;;;;;;;;18.67;35.10;101874.44;4133863;28;20016;-57
2024/02/28 05:39:45;;;;;;;;;;;;;;;18.68;35.07;101861.03;4133756;28;19937;-57
2024/02/28 05:41:47;;;;;;;;;;;;;;;18.70;34.87;101865.44;4133958;28;19992;-56
2024/02/28 05:43:49;;;;;;;;;;;;;;;18.69;34.73;101856.59;4134052;28;19973;-57
2024/02/28 05:45:51;;;;;;;;;;;;;;;18.68;34.61;101866.38;4133956;28;19929;-57
2024/02/28 05:47:52;;;;;;;;;;;;;;;18.68;35.00;101855.72;4133871;28;19926;-58
2024/02/28 05:49:55;;;;;;;;;;;;;;;18.68;34.81;101846.88;4133572;28;19926;-57
2024/02/28 05:51:57;;;;;;;;;;;;;;;18.66;34.87;101846.97;4133809;28;19936;-56
2024/02/28 05:53:59;;;;;;;;;;;;;;;18.66;35.03;101846.06;4133918;28;19932;-57
2024/02/28 05:56:00;;;;;;;;;;;;;;;18.65;34.89;101844.34;4133680;28;19936;-56
2024/02/28 05:58:02;;;;;;;;;;;;;;;18.63;35.16;101844.44;4133558;28;20428;-56
2024/02/28 06:00:09;;;;;;;;;;;;;;;18.64;34.98;101846.16;4133511;28;19926;-57
2024/02/28 06:02:12;;;;;;;;;;;;;;;18.65;34.76;101850.56;4133530;28;20029;-56
2024/02/28 06:04:14;;;;;;;;;;;;;;;18.66;35.04;101849.63;4133285;28;19926;-56
2024/02/28 06:06:16;;;;;;;;;;;;;;;18.68;35.08;101850.38;4116235;28;19926;-56
2024/02/28 06:08:18;;;;;;;;;;;;;;;18.68;34.98;101845.06;4116457;28;20320;-56
2024/02/28 06:10:21;;;;;;;;;;;;;;;18.69;35.12;101845.94;4116277;28;19973;-57
2024/02/28 06:12:25;;;;;;;;;;;;;;;18.71;35.07;101845.84;4133269;28;19933;-58
2024/02/28 06:14:26;;;;;;;;;;;;;;;18.70;35.17;101841.44;4133470;28;19981;-57
2024/02/28 06:16:28;;;;;;;;;;;;;;;18.70;35.11;101849.44;4133487;28;20079;-57
2024/02/28 06:18:33;;;;;;;;;;;;;;;18.68;35.05;101850.38;4133261;28;20025;-57
2024/02/28 06:20:35;;;;;;;;;;;;;;;18.67;34.82;101843.31;4133201;28;19930;-57
2024/02/28 06:22:36;;;;;;;;;;;;;;;18.67;34.82;101847.81;4133444;28;20016;-57
2024/02/28 06:24:38;;;;;;;;;;;;;;;18.65;35.07;101847.91;4115703;28;19926;-57
2024/02/28 06:26:41;;;;;;;;;;;;;;;18.65;35.15;101858.56;4133241;28;19937;-57
2024/02/28 06:28:45;;;;;;;;;;;;;;;18.66;35.09;101862.06;4133279;28;20340;-57
2024/02/28 06:30:47;;;;;;;;;;;;;;;18.68;34.96;101870.84;4133132;28;19925;-57
2024/02/28 06:32:49;;;;;;;;;;;;;;;18.71;35.04;101872.50;4132906;28;20012;-57
2024/02/28 06:34:50;;;;;;;;;;;;;;;18.71;35.16;101864.50;4132723;28;20304;-57
2024/02/28 06:36:52;;;;;;;;;;;;;;;18.72;35.07;101860.91;4133217;28;19980;-57
2024/02/28 06:38:54;;;;;;;;;;;;;;;18.72;35.14;101864.41;4132739;28;19932;-55
2024/02/28 06:40:55;;;;;;;;;;;;;;;18.72;35.11;101877.72;4132665;28;19932;-56
2024/02/28 06:42:57;;;;;;;;;;;;;;;18.72;35.06;101874.22;4132775;28;19984;-56
2024/02/28 06:44:58;;;;;;;;;;;;;;;18.71;35.14;101883.16;4132973;28;19957;-56
2024/02/28 06:47:00;;;;;;;;;;;;;;;18.70;34.97;101887.63;4132827;28;19926;-57
2024/02/28 06:49:01;;;;;;;;;;;;;;;18.70;34.93;101884.09;4132640;28;19930;-56
2024/02/28 06:51:03;;;;;;;;;;;;;;;18.68;35.13;101895.69;4132828;28;20022;-56
2024/02/28 06:53:05;;;;;;;;;;;;;;;18.68;34.98;101895.69;4132785;28;19984;-57
2024/02/28 06:55:10;;;;;;;;;;;;;;;18.66;35.17;101886.94;4132910;28;20344;-56
2024/02/28 06:57:12;;;;;;;;;;;;;;;18.68;34.99;101886.84;4132747;28;19937;-56
2024/02/28 06:59:14;;;;;;;;;;;;;;;18.69;35.05;101891.22;4132810;28;19932;-56
2024/02/28 07:01:17;;;;;;;;;;;;;;;18.71;35.21;101897.31;4133086;28;19934;-56
2024/02/28 07:03:18;;;;;;;;;;;;;;;18.73;34.94;101900.78;4132455;28;19930;-57
2024/02/28 07:05:20;;;;;;;;;;;;;;;18.73;34.97;101895.44;4132416;28;19980;-55
2024/02/28 07:07:22;;;;;;;;;;;;;;;18.74;35.12;101891.84;4132596;28;19937;-56
2024/02/28 07:09:25;;;;;;;;;;;;;;;18.75;35.17;101892.69;4132546;28;20016;-56
2024/02/28 07:11:27;;;;;;;;;;;;;;;18.75;34.95;101896.25;4132817;28;20311;-57
2024/02/28 07:13:29;;;;;;;;;;;;;;;18.74;35.23;101897.19;4132302;28;19933;-56
2024/02/28 07:15:30;;;;;;;;;;;;;;;18.73;34.97;101897.25;4132437;28;19932;-56
2024/02/28 07:17:34;;;;;;;;;;;;;;;18.72;35.00;101892.88;4132139;28;19925;-56
2024/02/28 07:19:36;;;;;;;;;;;;;;;18.72;35.08;101892.88;4132638;28;19969;-56
2024/02/28 07:21:38;;;;;;;;;;;;;;;18.71;35.19;101894.66;4132261;28;20000;-56
2024/02/28 07:23:43;;;;;;;;;;;;;;;18.71;34.97;101901.81;4132561;28;20012;-56
2024/02/28 07:25:44;;;;;;;;;;;;;;;18.72;35.20;101898.19;4132282;28;19949;-56
2024/02/28 07:27:46;;;;;;;;;;;;;;;18.73;35.20;101897.25;4132360;28;20312;-56
2024/02/28 07:29:47;;;;;;;;;;;;;;;18.73;35.12;101898.13;4131573;28;20352;-56
2024/02/28 07:31:49;;;;;;;;;;;;;;;18.76;35.21;101894.44;4131752;28;19925;-57
2024/02/28 07:33:51;;;;;;;;;;;;;;;18.77;35.01;101893.50;4131858;28;19968;-56
2024/02/28 07:35:53;;;;;;;;;;;;;;;18.78;35.24;101890.75;4131928;28;19925;-56
2024/02/28 07:37:54;;;;;;;;;;;;;;;18.79;34.97;101891.63;4132204;28;19961;-56
2024/02/28 07:39:56;;;;;;;;;;;;;;;18.81;35.10;101903.03;4132337;28;19930;-56
2024/02/28 07:41:58;;;;;;;;;;;;;;;18.81;35.17;101900.38;4132271;28;20008;-56
2024/02/28 07:44:00;;;;;;;;;;;;;;;18.79;35.16;101902.28;4131994;28;19961;-53
2024/02/28 07:46:02;;;;;;;;;;;;;;;18.78;35.03;101906.72;4131587;28;20319;-56
2024/02/28 07:48:04;;;;;;;;;;;;;;;18.78;35.08;101911.22;4132003;28;19925;-55
2024/02/28 07:50:06;;;;;;;;;;;;;;;18.77;34.97;101914.81;4132128;28;20375;-55
2024/02/28 07:52:11;;;;;;;;;;;;;;;18.77;35.36;101917.47;4115119;28;19926;-56
2024/02/28 07:54:12;;;;;;;;;;;;;;;18.76;35.25;101919.28;4131082;28;20017;-55
2024/02/28 07:56:17;;;;;;;;;;;;;;;18.78;35.31;101917.38;4131839;28;20347;-56
2024/02/28 07:58:19;;;;;;;;;;;;;;;18.80;35.20;101920.84;4131891;28;19961;-57
2024/02/28 08:00:20;;;;;;;;;;;;;;;18.82;35.25;101926.09;4131468;28;20012;-56
2024/02/28 08:02:22;;;;;;;;;;;;;;;18.83;35.24;101920.72;4131722;28;19930;-57
2024/02/28 08:04:24;;;;;;;;;;;;;;;18.84;34.99;101924.22;4131772;28;20388;-57
2024/02/28 08:06:26;;;;;;;;;;;;;;;18.83;35.21;101923.38;4131899;28;20449;-57
2024/02/28 08:08:28;;;;;;;;;;;;;;;18.86;35.14;101929.47;4131601;28;19933;-56
2024/02/28 08:10:29;;;;;;;;;;;;;;;18.85;34.96;101925.94;4131761;28;19925;-57
2024/02/28 08:12:32;;;;;;;;;;;;;;;18.84;34.92;101932.22;4131737;28;19929;-57
2024/02/28 08:14:33;;;;;;;;;;;;;;;18.83;35.15;101931.38;4131351;28;20453;-56
2024/02/28 08:16:35;;;;;;;;;;;;;;;18.82;35.20;101934.97;4131778;28;19937;-57
2024/02/28 08:18:36;;;;;;;;;;;;;;;18.81;35.01;101938.56;4131766;28;19987;-56
2024/02/28 08:20:38;;;;;;;;;;;;;;;18.81;35.17;101938.56;4131467;28;19930;-56
2024/02/28 08:22:40;;;;;;;;;;;;;;;18.81;35.17;101940.34;4131921;28;19980;-57
2024/02/28 08:24:42;;;;;;;;;;;;;;;18.81;35.09;101938.56;4131508;28;19925;-57
2024/02/28 08:26:44;;;;;;;;;;;;;;;18.83;35.02;101944.69;4131671;28;19932;-57
2024/02/28 08:28:46;;;;;;;;;;;;;;;18.86;35.19;101953.44;4131672;28;19980;-58
2024/02/28 08:30:49;;;;;;;;;;;;;;;18.88;35.24;101948.91;4131460;28;19925;-58
2024/02/28 08:32:51;;;;;;;;;;;;;;;18.88;35.11;101956.91;4131366;28;19976;-57
2024/02/28 08:34:54;;;;;;;;;;;;;;;18.89;35.23;101951.50;4131481;28;20315;-58
2024/02/28 08:36:55;;;;;;;;;;;;;;;18.88;34.97;101955.09;4131597;28;19926;-56
2024/02/28 08:38:57;;;;;;;;;;;;;;;18.89;35.06;101953.31;4131523;28;19948;-56
2024/02/28 08:40:58;;;;;;;;;;;;;;;18.88;34.98;101947.09;4131575;28;20519;-58
2024/02/28 08:43:00;;;;;;;;;;;;;;;18.88;35.23;101940.91;4131552;28;19933;-58
2024/02/28 08:45:03;;;;;;;;;;;;;;;18.88;34.93;101935.59;4131300;28;19926;-57
2024/02/28 08:47:07;;;;;;;;;;;;;;;18.89;34.92;101931.97;4131296;28;19925;-57
2024/02/28 08:49:09;;;;;;;;;;;;;;;18.89;34.95;101935.50;4131507;28;19925;-57
2024/02/28 08:51:11;;;;;;;;;;;;;;;18.90;34.98;101928.38;4131539;28;19926;-58
2024/02/28 08:53:12;;;;;;;;;;;;;;;18.91;35.02;101923.00;4131325;28;19934;-57
2024/02/28 08:55:18;;;;;;;;;;;;;;;18.93;35.02;101922.91;4131393;28;19929;-58
2024/02/28 08:57:22;;;;;;;;;;;;;;;18.96;35.20;101923.63;4131290;28;19926;-58
2024/02/28 08:59:23;;;;;;;;;;;;;;;18.98;35.09;101927.06;4131057;28;20319;-58
2024/02/28 09:01:25;;;;;;;;;;;;;;;19.01;35.13;101922.53;4131263;28;19925;-56
2024/02/28 09:03:27;;;;;;;;;;;;;;;19.03;34.88;101921.50;4131459;28;19933;-58
2024/02/28 09:05:28;;;;;;;;;;;;;;;19.04;35.06;101917.03;4116250;28;19930;-56
2024/02/28 09:07:30;;;;;;;;;;;;;;;19.05;34.96;101930.25;4134626;28;20013;-55
2024/02/28 09:09:34;;;;;;;;;;;;;;;19.05;34.92;101924.09;4134489;28;19926;-57
2024/02/28 09:11:35;;;;;;;;;;;;;;;19.04;35.00;101925.03;4118716;28;19926;-57
2024/02/28 09:13:37;;;;;;;;;;;;;;;19.03;34.80;101923.28;4115078;28;19941;-56
2024/02/28 09:15:38;;;;;;;;;;;;;;;19.03;34.86;101929.50;4127113;28;19926;-57
2024/02/28 09:17:40;;;;;;;;;;;;;;;19.01;35.01;101930.53;4110192;28;19966;-55
2024/02/28 09:19:42;;;;;;;;;;;;;;;18.99;34.81;101930.59;4114783;28;19930;-58
2024/02/28 09:21:43;;;;;;;;;;;;;;;19.01;34.66;101930.53;4117445;28;20020;-58
2024/02/28 09:23:45;;;;;;;;;;;;;;;19.02;34.61;101930.44;4117047;28;19926;-57
2024/02/28 09:25:47;;;;;;;;;;;;;;;19.04;34.53;101928.56;4117144;28;19926;-58
2024/02/28 09:27:48;;;;;;;;;;;;;;;19.05;34.51;101934.75;4116658;28;20384;-58
2024/02/28 09:29:50;;;;;;;;;;;;;;;19.05;34.48;101934.75;4116837;28;19973;-58
2024/02/28 09:31:52;;;;;;;;;;;;;;;19.06;34.76;101933.81;4099214;28;20522;-58
2024/02/28 09:33:54;;;;;;;;;;;;;;;19.05;34.50;101937.41;4115113;28;19985;-58
2024/02/28 09:35:55;;;;;;;;;;;;;;;19.03;34.86;101937.50;4116820;28;19930;-57
2024/02/28 09:37:57;;;;;;;;;;;;;;;19.01;34.55;101936.72;4112310;28;19965;-58
2024/02/28 09:39:58;;;;;;;;;;;;;;;18.98;34.77;101937.72;4117159;28;19934;-57
2024/02/28 09:42:01;;;;;;;;;;;;;;;18.97;34.68;101936.00;4115597;28;19930;-57
2024/02/28 09:44:05;;;;;;;;;;;;;;;18.96;34.54;101938.75;4117519;28;19930;-58
2024/02/28 09:46:11;;;;;;;;;;;;;;;18.96;34.76;101938.75;4117686;28;20016;-58
2024/02/28 09:48:15;;;;;;;;;;;;;;;18.95;34.65;101942.38;4116729;28;19926;-55
2024/02/28 09:50:18;;;;;;;;;;;;;;;18.95;34.99;101945.88;4117062;28;19933;-55
2024/02/28 09:52:20;;;;;;;;;;;;;;;18.96;34.86;101942.28;4117337;28;19926;-58
2024/02/28 09:54:21;;;;;;;;;;;;;;;18.97;34.87;101936.00;4117649;28;19930;-57
2024/02/28 09:56:23;;;;;;;;;;;;;;;18.97;34.83;101933.34;4117360;28;19930;-58
2024/02/28 09:58:26;;;;;;;;;;;;;;;18.96;34.68;101928.94;4117358;28;19969;-54
2024/02/28 10:00:27;;;;;;;;;;;;;;;18.95;34.63;101935.22;4117523;28;19926;-57
2024/02/28 10:02:30;;;;;;;;;;;;;;;18.96;34.71;101941.44;4097932;28;20084;-55
2024/02/28 10:04:33;;;;;;;;;;;;;;;18.96;35.09;101934.28;4120444;28;19965;-56
2024/02/28 10:06:34;;;;;;;;;;;;;;;18.97;34.99;101924.50;4108492;28;19941;-55
2024/02/28 10:08:37;;;;;;;;;;;;;;;19.01;35.04;101939.38;4115633;28;20004;-58
2024/02/28 10:10:47;;;;;;;;;;;;;;;19.05;34.97;101937.41;4110381;28;19973;-58
2024/02/28 10:12:48;;;;;;;;;;;;;;;19.10;34.91;101941.56;4113883;28;19981;-58
2024/02/28 10:14:51;;;;;;;;;;;;;;;19.15;34.82;101942.19;4112697;28;19938;-57
2024/02/28 10:16:54;;;;;;;;;;;;;;;19.18;34.80;101935.84;4119624;28;19984;-55
2024/02/28 10:18:56;;;;;;;;;;;;;;;19.20;34.52;101938.41;4126035;28;19926;-54
2024/02/28 10:20:58;;;;;;;;;;;;;;;19.21;34.56;101938.34;4115108;28;20016;-55
2024/02/28 10:23:03;;;;;;;;;;;;;;;19.23;34.64;101936.44;4112715;28;19926;-57
2024/02/28 10:25:05;;;;;;;;;;;;;;;19.25;34.74;101939.06;4119640;28;19929;-55